Time;durP1;ratioP1;P1;durP2;ratioP2;P2;SDS_P1;SDS_P2;PMS_P1;PMS_P2;Temp;Humidity;BMP_temperature;BMP_pressure;BME280_temperature;BME280_humidity;BME280_pressure;Samples;Min_cycle;Max_cycle;Signal;HPM_P1;HPM_P2
2022/09/12 00:01:24;;;;;;;15.35;12.98;;;16.80;99.90;;;;;;5051871;28;20310;-45
2022/09/12 00:03:59;;;;;;;17.65;13.80;;;16.80;99.90;;;;;;5052193;28;20098;-46
2022/09/12 00:06:28;;;;;;;15.57;13.88;;;16.70;99.90;;;;;;5052353;28;20045;-48
2022/09/12 00:08:56;;;;;;;17.08;14.07;;;16.60;99.90;;;;;;5051924;28;20407;-46
2022/09/12 00:11:22;;;;;;;17.02;14.55;;;16.60;99.90;;;;;;5052214;28;20068;-47
2022/09/12 00:13:48;;;;;;;15.68;14.00;;;16.60;99.90;;;;;;5051945;28;20057;-46
2022/09/12 00:16:23;;;;;;;16.35;14.73;;;16.60;99.90;;;;;;5051694;28;20084;-47
2022/09/12 00:18:50;;;;;;;16.92;15.13;;;16.60;99.90;;;;;;5051881;28;20048;-48
2022/09/12 00:21:17;;;;;;;18.58;16.67;;;16.60;99.90;;;;;;5051749;28;20041;-45
2022/09/12 00:23:43;;;;;;;19.10;16.83;;;16.50;99.90;;;;;;5051883;28;20787;-46
2022/09/12 00:26:08;;;;;;;20.13;15.82;;;16.40;99.90;;;;;;5051969;28;20068;-46
2022/09/12 00:28:36;;;;;;;20.48;17.25;;;16.50;99.90;;;;;;5051966;28;20084;-48
2022/09/12 00:31:08;;;;;;;17.25;15.43;;;16.40;99.90;;;;;;5051662;28;20041;-47
2022/09/12 00:33:35;;;;;;;17.40;15.63;;;16.30;99.90;;;;;;5051839;28;20048;-45
2022/09/12 00:36:08;;;;;;;18.50;16.20;;;16.20;99.90;;;;;;5051460;28;20071;-47
2022/09/12 00:38:37;;;;;;;20.27;17.33;;;16.20;99.90;;;;;;5051545;28;20052;-47
2022/09/12 00:41:04;;;;;;;23.08;19.02;;;16.30;99.90;;;;;;5050304;28;20036;-47
2022/09/12 00:43:29;;;;;;;19.27;17.17;;;16.40;99.90;;;;;;5051780;28;20438;-46
2022/09/12 00:46:10;;;;;;;23.10;18.50;;;16.30;99.90;;;;;;5051267;28;20045;-45
2022/09/12 00:48:46;;;;;;;20.15;18.02;;;16.30;99.90;;;;;;5051553;28;20056;-46
2022/09/12 00:51:13;;;;;;;20.80;18.27;;;16.20;99.90;;;;;;5051564;28;20041;-48
2022/09/12 00:53:42;;;;;;;22.27;18.35;;;16.20;99.90;;;;;;5051419;28;20507;-49
2022/09/12 00:56:09;;;;;;;21.08;18.88;;;16.20;99.90;;;;;;5051622;28;20036;-45
2022/09/12 00:58:40;;;;;;;21.02;18.77;;;16.10;99.90;;;;;;5050929;28;20071;-48
2022/09/12 01:01:06;;;;;;;21.42;19.13;;;16.10;99.90;;;;;;5051500;28;20418;-48
2022/09/12 01:03:31;;;;;;;21.88;19.60;;;16.10;99.90;;;;;;5050701;28;20090;-45
2022/09/12 01:06:23;;;;;;;22.38;19.98;;;16.00;99.90;;;;;;5051001;28;20173;-47
2022/09/12 01:08:51;;;;;;;22.95;20.48;;;16.10;99.90;;;;;;5049686;28;20416;-46
2022/09/12 01:11:18;;;;;;;22.58;20.15;;;16.10;99.90;;;;;;5050292;28;20044;-49
2022/09/12 01:13:45;;;;;;;23.20;20.80;;;16.00;99.90;;;;;;5050248;28;20611;-47
2022/09/12 01:16:11;;;;;;;23.10;20.70;;;16.00;99.90;;;;;;5049665;28;20033;-44
2022/09/12 01:19:07;;;;;;;23.42;20.92;;;16.00;99.90;;;;;;5050702;28;20089;-44
2022/09/12 01:21:46;;;;;;;25.38;21.73;;;16.00;99.90;;;;;;5051007;28;20041;-46
2022/09/12 01:24:48;;;;;;;23.10;20.75;;;16.00;99.90;;;;;;5050626;28;20045;-47
2022/09/12 01:27:17;;;;;;;23.25;20.85;;;15.90;99.90;;;;;;5050984;28;20388;-46
2022/09/12 01:29:52;;;;;;;24.38;21.83;;;15.90;99.90;;;;;;5050749;28;20088;-46
2022/09/12 01:33:01;;;;;;;24.08;21.52;;;15.90;99.90;;;;;;5050304;28;20037;-46
2022/09/12 01:35:47;;;;;;;23.40;20.83;;;15.90;99.90;;;;;;5050101;28;20120;-46
2022/09/12 01:38:31;;;;;;;22.98;20.33;;;15.80;99.90;;;;;;5033473;28;20055;-46
2022/09/12 01:41:15;;;;;;;24.65;21.27;;;15.80;99.90;;;;;;5050252;28;20041;-46
2022/09/12 01:44:00;;;;;;;24.30;21.35;;;15.80;99.90;;;;;;5050769;28;20044;-44
2022/09/12 01:46:44;;;;;;;23.55;21.15;;;15.80;99.90;;;;;;5050940;28;20164;-44
2022/09/12 01:49:45;;;;;;;24.30;21.70;;;15.80;99.90;;;;;;5050877;28;20044;-46
2022/09/12 01:52:21;;;;;;;24.33;21.75;;;15.70;99.90;;;;;;5033300;28;20049;-46
2022/09/12 01:54:54;;;;;;;25.33;22.63;;;15.80;99.90;;;;;;5050783;28;20094;-48
2022/09/12 01:57:26;;;;;;;25.35;22.63;;;15.70;99.90;;;;;;5050443;28;20040;-46
2022/09/12 01:59:58;;;;;;;26.05;23.25;;;15.70;99.90;;;;;;5050414;28;20060;-44
2022/09/12 02:02:35;;;;;;;26.95;24.08;;;15.70;99.90;;;;;;5050775;28;20083;-45
2022/09/12 02:05:16;;;;;;;26.33;23.45;;;15.70;99.90;;;;;;5050347;28;20041;-45
2022/09/12 02:07:52;;;;;;;28.55;23.20;;;15.70;99.90;;;;;;5050716;28;20047;-44
2022/09/12 02:10:25;;;;;;;27.40;24.50;;;15.70;99.90;;;;;;5046986;28;20068;-44
2022/09/12 02:13:14;;;;;;;25.95;23.23;;;15.60;99.90;;;;;;5050062;28;20048;-46
2022/09/12 02:15:44;;;;;;;27.00;24.08;;;15.60;99.90;;;;;;5035650;28;20059;-45
2022/09/12 02:18:13;;;;;;;27.40;23.90;;;15.60;99.90;;;;;;5050466;28;20472;-44
2022/09/12 02:20:42;;;;;;;27.13;24.23;;;15.50;99.90;;;;;;5050455;28;20471;-46
2022/09/12 02:23:13;;;;;;;28.60;25.52;;;15.50;99.90;;;;;;5050257;28;20515;-46
2022/09/12 02:25:44;;;;;;;28.63;25.67;;;15.50;99.90;;;;;;5032338;28;20041;-44
2022/09/12 02:28:15;;;;;;;30.10;26.83;;;15.50;99.90;;;;;;5050384;28;20102;-45
2022/09/12 02:30:52;;;;;;;29.90;26.65;;;15.40;99.90;;;;;;5050300;28;20387;-48
2022/09/12 02:33:33;;;;;;;30.08;26.67;;;15.50;99.90;;;;;;5049045;28;20044;-46
2022/09/12 02:36:14;;;;;;;32.67;26.35;;;15.40;99.90;;;;;;5050070;28;20045;-50
2022/09/12 02:38:44;;;;;;;31.55;27.13;;;15.40;99.90;;;;;;5049667;28;20091;-47
2022/09/12 02:41:12;;;;;;;30.75;27.40;;;15.40;99.90;;;;;;5050136;28;20391;-44
2022/09/12 02:43:37;;;;;;;33.53;28.00;;;15.30;99.90;;;;;;5034965;28;20102;-45
2022/09/12 02:46:08;;;;;;;32.58;27.40;;;15.30;99.90;;;;;;5053712;28;20045;-46
2022/09/12 02:48:38;;;;;;;30.80;27.38;;;15.30;99.90;;;;;;5053465;28;20120;-44
2022/09/12 02:51:04;;;;;;;34.95;29.02;;;15.30;99.90;;;;;;5053475;28;20045;-45
2022/09/12 02:53:30;;;;;;;33.80;29.50;;;15.30;99.90;;;;;;5053693;28;20483;-44
2022/09/12 02:55:56;;;;;;;34.85;29.77;;;15.30;99.90;;;;;;5053329;28;20037;-48
2022/09/12 02:58:25;;;;;;;35.95;30.13;;;15.20;99.90;;;;;;5053656;28;20029;-48
2022/09/12 03:01:17;;;;;;;33.80;30.00;;;15.20;99.90;;;;;;5053306;28;20120;-45
2022/09/12 03:03:58;;;;;;;32.55;29.05;;;15.20;99.90;;;;;;5022784;28;20056;-46
2022/09/12 03:06:52;;;;;;;33.13;28.60;;;15.20;99.90;;;;;;5053472;28;20567;-49
2022/09/12 03:09:29;;;;;;;32.80;29.17;;;15.20;99.90;;;;;;5053183;28;20029;-44
2022/09/12 03:12:01;;;;;;;33.75;29.77;;;15.10;99.90;;;;;;5053652;28;20037;-48
2022/09/12 03:15:00;;;;;;;33.30;29.38;;;15.20;99.90;;;;;;5052888;28;20053;-48
2022/09/12 03:17:44;;;;;;;33.22;29.17;;;15.10;99.90;;;;;;5053402;28;20124;-46
2022/09/12 03:20:15;;;;;;;33.83;29.02;;;15.00;99.90;;;;;;5053402;28;20572;-46
2022/09/12 03:23:05;;;;;;;33.22;29.30;;;15.10;99.90;;;;;;5053167;28;20080;-44
2022/09/12 03:25:40;;;;;;;35.03;31.23;;;15.00;99.90;;;;;;5051857;28;20040;-45
2022/09/12 03:28:16;;;;;;;33.72;29.13;;;15.10;99.90;;;;;;5052779;28;20076;-48
2022/09/12 03:30:44;;;;;;;34.40;28.98;;;15.00;99.90;;;;;;5053101;28;20033;-48
2022/09/12 03:33:11;;;;;;;33.08;27.95;;;15.00;99.90;;;;;;5052888;28;20045;-44
2022/09/12 03:35:37;;;;;;;33.30;29.17;;;15.00;99.90;;;;;;5052542;28;20040;-44
2022/09/12 03:38:04;;;;;;;34.42;29.45;;;14.90;99.90;;;;;;5052964;28;20040;-48
2022/09/12 03:40:29;;;;;;;32.83;28.77;;;15.00;99.90;;;;;;5052234;28;20037;-44
2022/09/12 03:42:55;;;;;;;32.92;29.25;;;14.90;99.90;;;;;;5052259;28;20128;-44
2022/09/12 03:45:21;;;;;;;36.03;29.75;;;14.80;99.90;;;;;;5052608;28;20089;-45
2022/09/12 03:47:46;;;;;;;36.90;30.45;;;14.90;99.90;;;;;;5052670;28;20384;-44
2022/09/12 03:50:12;;;;;;;32.42;28.88;;;14.80;99.90;;;;;;5052784;28;20468;-48
2022/09/12 03:52:38;;;;;;;33.13;28.40;;;14.70;99.90;;;;;;5052246;28;20092;-44
2022/09/12 03:55:04;;;;;;;35.55;29.75;;;14.70;99.90;;;;;;5052067;28;20041;-47
2022/09/12 03:57:30;;;;;;;33.03;29.35;;;14.70;99.90;;;;;;5051049;28;20041;-44
2022/09/12 03:59:56;;;;;;;34.20;29.20;;;14.70;99.90;;;;;;5052203;28;20047;-45
2022/09/12 04:02:21;;;;;;;35.28;29.42;;;14.70;99.90;;;;;;5052379;28;20041;-48
2022/09/12 04:04:47;;;;;;;34.80;29.52;;;14.70;99.90;;;;;;5052502;28;20047;-44
2022/09/12 04:07:15;;;;;;;33.67;29.55;;;14.60;99.90;;;;;;5052216;28;20045;-47
2022/09/12 04:09:40;;;;;;;36.35;29.67;;;14.60;99.90;;;;;;5051989;28;20033;-46
2022/09/12 04:12:06;;;;;;;34.05;29.13;;;14.60;99.90;;;;;;5051737;28;20373;-44
2022/09/12 04:14:32;;;;;;;32.58;28.75;;;14.70;99.90;;;;;;5051890;28;20099;-48
2022/09/12 04:16:59;;;;;;;31.90;28.40;;;14.60;99.90;;;;;;5052025;28;20067;-44
2022/09/12 04:19:25;;;;;;;33.75;28.42;;;14.60;99.90;;;;;;5052082;28;20029;-45
2022/09/12 04:21:51;;;;;;;31.50;27.40;;;14.60;99.90;;;;;;5050605;28;20045;-49
2022/09/12 04:24:16;;;;;;;33.83;28.50;;;14.60;99.90;;;;;;5051804;28;20040;-45
2022/09/12 04:26:42;;;;;;;33.97;28.65;;;14.60;99.90;;;;;;5051611;28;20067;-48
2022/09/12 04:29:10;;;;;;;32.83;27.85;;;14.50;99.90;;;;;;5051955;28;20132;-46
2022/09/12 04:31:37;;;;;;;36.13;29.67;;;14.50;99.90;;;;;;5051715;28;20051;-44
2022/09/12 04:34:04;;;;;;;32.72;28.35;;;14.50;99.90;;;;;;5033535;28;20040;-47
2022/09/12 04:36:32;;;;;;;33.63;29.20;;;14.50;99.90;;;;;;5051393;28;20040;-45
2022/09/12 04:38:59;;;;;;;34.92;28.85;;;14.50;99.90;;;;;;5051232;28;20048;-45
2022/09/12 04:41:27;;;;;;;33.85;28.63;;;14.50;99.90;;;;;;5033505;28;20052;-45
2022/09/12 04:44:01;;;;;;;36.58;29.48;;;14.50;99.90;;;;;;5033717;28;20045;-44
2022/09/12 04:46:28;;;;;;;34.40;29.55;;;14.40;99.90;;;;;;5051282;28;20041;-45
2022/09/12 04:48:54;;;;;;;37.75;31.23;;;14.40;99.90;;;;;;5051018;28;20051;-44
2022/09/12 04:51:32;;;;;;;37.22;30.80;;;14.40;99.90;;;;;;5050256;28;20045;-47
2022/09/12 04:54:04;;;;;;;43.28;33.20;;;14.50;99.90;;;;;;5051675;28;20040;-47
2022/09/12 04:56:30;;;;;;;40.80;33.33;;;14.50;99.90;;;;;;5051531;28;20126;-44
2022/09/12 04:58:59;;;;;;;40.58;32.58;;;14.50;99.90;;;;;;5050979;28;20037;-44
2022/09/12 05:01:26;;;;;;;42.17;33.70;;;14.50;99.90;;;;;;5051273;28;20049;-48
2022/09/12 05:03:53;;;;;;;44.05;34.63;;;14.50;99.90;;;;;;5050981;28;20040;-47
2022/09/12 05:06:24;;;;;;;41.28;32.22;;;14.40;99.90;;;;;;5048879;28;20052;-47
2022/09/12 05:08:52;;;;;;;40.53;32.03;;;14.40;99.90;;;;;;5049832;28;20052;-44
2022/09/12 05:11:23;;;;;;;41.85;33.55;;;14.40;99.90;;;;;;5049105;28;20041;-47
2022/09/12 05:13:49;;;;;;;41.42;33.03;;;14.50;99.90;;;;;;5050804;28;20052;-44
2022/09/12 05:16:16;;;;;;;44.70;34.15;;;14.40;99.90;;;;;;5050946;28;20053;-44
2022/09/12 05:18:43;;;;;;;41.95;33.05;;;14.40;99.90;;;;;;5050576;28;20040;-46
2022/09/12 05:21:16;;;;;;;45.90;34.95;;;14.50;99.90;;;;;;5050358;28;20037;-46
2022/09/12 05:23:42;;;;;;;44.88;34.50;;;14.50;99.90;;;;;;5049876;28;20037;-48
2022/09/12 05:26:11;;;;;;;48.28;34.60;;;14.60;99.90;;;;;;5050387;28;20076;-46
2022/09/12 05:28:37;;;;;;;46.53;34.50;;;14.60;99.90;;;;;;5050876;28;20040;-44
2022/09/12 05:31:07;;;;;;;42.08;32.90;;;14.60;99.90;;;;;;5050559;28;20048;-44
2022/09/12 05:33:35;;;;;;;40.15;31.60;;;14.50;99.90;;;;;;5050723;28;20483;-44
2022/09/12 05:36:02;;;;;;;42.58;33.40;;;14.50;99.90;;;;;;5050892;28;20068;-45
2022/09/12 05:38:28;;;;;;;40.45;32.70;;;14.50;99.90;;;;;;5050833;28;20033;-46
2022/09/12 05:41:02;;;;;;;40.80;32.67;;;14.50;99.90;;;;;;5050519;28;20043;-44
2022/09/12 05:43:28;;;;;;;45.05;33.50;;;14.70;99.90;;;;;;5046165;28;20448;-44
2022/09/12 05:46:00;;;;;;;45.00;34.30;;;14.60;99.90;;;;;;5050786;28;20073;-44
2022/09/12 05:48:27;;;;;;;46.00;34.60;;;14.60;99.90;;;;;;5050811;28;20407;-44
2022/09/12 05:51:00;;;;;;;44.15;33.38;;;14.70;99.90;;;;;;5049999;28;20052;-45
2022/09/12 05:53:27;;;;;;;47.13;33.63;;;14.70;99.90;;;;;;5050490;28;20095;-44
2022/09/12 05:56:14;;;;;;;46.75;34.25;;;14.70;99.90;;;;;;5050605;28;20499;-46
2022/09/12 05:58:43;;;;;;;46.08;35.08;;;14.80;99.90;;;;;;5048642;28;20040;-43
2022/09/12 06:01:14;;;;;;;45.53;35.17;;;14.80;99.90;;;;;;5049136;28;20029;-44
2022/09/12 06:03:45;;;;;;;45.25;34.97;;;14.80;99.90;;;;;;5049140;28;20159;-44
2022/09/12 06:06:13;;;;;;;49.67;34.95;;;14.80;99.90;;;;;;5050163;28;20045;-45
2022/09/12 06:08:44;;;;;;;45.63;34.58;;;14.80;99.90;;;;;;5050413;28;20055;-47
2022/09/12 06:11:13;;;;;;;47.33;35.22;;;14.80;99.90;;;;;;5050179;28;20032;-44
2022/09/12 06:13:41;;;;;;;47.15;35.15;;;14.90;99.90;;;;;;5049994;28;20065;-45
2022/09/12 06:16:27;;;;;;;47.75;36.75;;;14.80;99.90;;;;;;5050290;28;20054;-46
2022/09/12 06:18:56;;;;;;;47.95;35.33;;;14.90;99.90;;;;;;5054073;28;20110;-44
2022/09/12 06:21:23;;;;;;;48.20;34.95;;;14.80;99.90;;;;;;5054499;28;20112;-44
2022/09/12 06:23:49;;;;;;;48.67;35.30;;;15.00;99.90;;;;;;5054282;28;20395;-46
2022/09/12 06:26:17;;;;;;;54.03;36.97;;;14.90;99.90;;;;;;5053829;28;20033;-45
2022/09/12 06:28:44;;;;;;;46.95;35.05;;;15.00;99.90;;;;;;5054424;28;20045;-45
2022/09/12 06:31:20;;;;;;;48.35;34.97;;;14.90;99.90;;;;;;5052562;28;20041;-46
2022/09/12 06:33:48;;;;;;;52.28;36.05;;;15.10;99.90;;;;;;5053942;28;20041;-48
2022/09/12 06:36:17;;;;;;;50.17;36.13;;;15.00;99.90;;;;;;5053669;28;20087;-47
2022/09/12 06:38:44;;;;;;;48.17;34.88;;;15.10;99.90;;;;;;5054021;28;20049;-46
2022/09/12 06:41:12;;;;;;;50.13;35.17;;;15.10;99.90;;;;;;5053579;28;20044;-48
2022/09/12 06:43:39;;;;;;;48.38;35.60;;;15.00;99.90;;;;;;5053924;28;20052;-44
2022/09/12 06:46:06;;;;;;;54.28;38.00;;;15.10;99.90;;;;;;5053885;28;20388;-45
2022/09/12 06:48:32;;;;;;;49.78;35.83;;;15.20;99.90;;;;;;5053457;28;20052;-46
2022/09/12 06:51:10;;;;;;;52.22;35.88;;;15.20;99.90;;;;;;5053770;28;20041;-45
2022/09/12 06:53:36;;;;;;;55.30;39.45;;;15.20;99.90;;;;;;5051234;28;20045;-48
2022/09/12 06:56:20;;;;;;;53.58;38.17;;;15.20;99.90;;;;;;5053610;28;20032;-46
2022/09/12 06:58:48;;;;;;;51.90;36.45;;;15.30;99.90;;;;;;5053530;28;20033;-44
2022/09/12 07:01:21;;;;;;;52.42;37.38;;;15.30;99.90;;;;;;5053469;28;20068;-46
2022/09/12 07:03:50;;;;;;;48.65;35.22;;;15.40;99.90;;;;;;5033828;28;20037;-44
2022/09/12 07:06:17;;;;;;;48.78;34.97;;;15.40;99.90;;;;;;5052424;28;20063;-46
2022/09/12 07:08:44;;;;;;;48.42;35.20;;;15.40;99.90;;;;;;5049065;28;20040;-45
2022/09/12 07:11:14;;;;;;;54.13;36.20;;;15.40;99.90;;;;;;5048796;28;20063;-48
2022/09/12 07:13:41;;;;;;;53.70;36.65;;;15.40;99.90;;;;;;5046631;28;20114;-46
2022/09/12 07:16:07;;;;;;;54.05;37.83;;;15.40;99.90;;;;;;5039277;28;20549;-47
2022/09/12 07:18:34;;;;;;;54.38;38.50;;;15.40;99.90;;;;;;5027734;28;20062;-45
2022/09/12 07:21:01;;;;;;;56.22;37.45;;;15.50;99.90;;;;;;5042597;28;20064;-45
2022/09/12 07:23:27;;;;;;;56.95;38.70;;;15.50;99.90;;;;;;5038203;28;20040;-44
2022/09/12 07:25:56;;;;;;;54.15;38.35;;;15.60;99.90;;;;;;5038033;28;20123;-45
2022/09/12 07:28:23;;;;;;;57.05;37.85;;;15.70;99.90;;;;;;5022214;28;20033;-46
2022/09/12 07:30:49;;;;;;;58.60;39.42;;;15.70;99.90;;;;;;5036479;28;20111;-44
2022/09/12 07:33:14;;;;;;;57.38;39.55;;;15.70;99.90;;;;;;5048525;28;20425;-45
2022/09/12 07:35:40;;;;;;;52.58;37.28;;;15.70;99.90;;;;;;5059907;28;20112;-47
2022/09/12 07:38:06;;;;;;;58.28;40.05;;;15.80;99.90;;;;;;5049073;28;20494;-48
2022/09/12 07:40:31;;;;;;;57.67;38.22;;;15.80;99.90;;;;;;5038996;28;20297;-44
2022/09/12 07:42:57;;;;;;;57.85;38.03;;;15.80;99.90;;;;;;5044589;28;20075;-45
2022/09/12 07:45:23;;;;;;;60.03;39.88;;;15.80;99.90;;;;;;5043158;28;20059;-45
2022/09/12 07:47:53;;;;;;;57.22;38.97;;;15.80;99.90;;;;;;5039114;28;20040;-46
2022/09/12 07:50:18;;;;;;;55.15;37.47;;;15.80;99.90;;;;;;5051176;28;20144;-46
2022/09/12 07:52:44;;;;;;;57.88;40.17;;;15.90;99.90;;;;;;5052321;28;20120;-47
2022/09/12 07:55:09;;;;;;;58.97;40.42;;;15.90;99.90;;;;;;5050498;28;20116;-47
2022/09/12 07:57:35;;;;;;;57.38;39.03;;;16.10;99.90;;;;;;5034403;28;20079;-48
2022/09/12 08:00:02;;;;;;;56.85;39.67;;;16.10;99.90;;;;;;5052659;28;20029;-49
2022/09/12 08:02:28;;;;;;;58.72;39.63;;;16.30;99.90;;;;;;5052379;28;20041;-44
2022/09/12 08:04:53;;;;;;;57.28;39.38;;;16.30;99.90;;;;;;5052107;28;20487;-46
2022/09/12 08:07:19;;;;;;;57.65;39.58;;;16.50;99.90;;;;;;5049153;28;20036;-47
2022/09/12 08:09:45;;;;;;;59.55;38.97;;;16.60;99.90;;;;;;5051127;28;20101;-46
2022/09/12 08:12:11;;;;;;;55.15;38.42;;;16.70;99.90;;;;;;5049158;28;20052;-48
2022/09/12 08:14:37;;;;;;;56.15;38.17;;;16.80;99.90;;;;;;5051819;28;20037;-47
2022/09/12 08:17:02;;;;;;;54.58;38.33;;;16.80;99.90;;;;;;5050762;28;20120;-46
2022/09/12 08:19:28;;;;;;;57.38;38.60;;;16.90;99.90;;;;;;5049054;28;20033;-45
2022/09/12 08:21:54;;;;;;;56.85;39.05;;;17.00;99.90;;;;;;5050524;28;20045;-44
2022/09/12 08:24:19;;;;;;;54.60;37.78;;;17.10;99.90;;;;;;5049597;28;20044;-45
2022/09/12 08:26:45;;;;;;;52.33;35.70;;;17.20;99.90;;;;;;5050785;28;20082;-47
2022/09/12 08:29:11;;;;;;;51.08;34.83;;;17.20;99.90;;;;;;5050852;28;20056;-48
2022/09/12 08:31:37;;;;;;;50.60;35.47;;;17.30;99.90;;;;;;5049921;28;20040;-47
2022/09/12 08:34:05;;;;;;;51.88;35.65;;;17.40;99.90;;;;;;5050790;28;20037;-46
2022/09/12 08:36:31;;;;;;;48.85;35.00;;;17.40;99.90;;;;;;5049989;28;20045;-45
2022/09/12 08:39:00;;;;;;;53.10;35.55;;;17.40;99.90;;;;;;5050535;28;20041;-48
2022/09/12 08:41:46;;;;;;;56.63;36.53;;;17.40;99.90;;;;;;5049738;28;20414;-46
2022/09/12 08:44:27;;;;;;;57.70;37.00;;;17.60;99.90;;;;;;5050000;28;20557;-44
2022/09/12 08:47:26;;;;;;;47.97;34.53;;;17.60;99.90;;;;;;5050214;28;20037;-46
2022/09/12 08:49:52;;;;;;;51.83;35.63;;;17.80;99.90;;;;;;5049736;28;20029;-46
2022/09/12 08:52:47;;;;;;;49.75;34.92;;;18.00;99.90;;;;;;5050334;28;20052;-44
2022/09/12 08:55:50;;;;;;;52.95;35.03;;;18.10;99.90;;;;;;5050078;28;20733;-48
2022/09/12 08:58:21;;;;;;;49.47;34.33;;;18.20;99.90;;;;;;5008801;28;20057;-50
2022/09/12 09:01:06;;;;;;;55.53;37.25;;;18.10;99.90;;;;;;5049688;28;20033;-44
2022/09/12 09:03:54;;;;;;;54.42;36.50;;;18.10;99.90;;;;;;5049797;28;20041;-45
2022/09/12 09:06:35;;;;;;;51.95;35.40;;;18.10;99.90;;;;;;5048798;28;20037;-48
2022/09/12 09:09:26;;;;;;;55.60;37.22;;;18.20;99.90;;;;;;5050081;28;20037;-46
2022/09/12 09:12:16;;;;;;;52.92;35.40;;;18.20;99.90;;;;;;5049423;28;20099;-47
2022/09/12 09:15:02;;;;;;;54.95;35.85;;;18.40;99.90;;;;;;5048291;28;20092;-46
2022/09/12 09:17:33;;;;;;;52.78;35.88;;;18.60;99.90;;;;;;5049516;28;21013;-48
2022/09/12 09:20:05;;;;;;;54.92;36.88;;;18.60;99.90;;;;;;5049724;28;20048;-48
2022/09/12 09:22:39;;;;;;;49.22;34.00;;;18.60;99.90;;;;;;5048348;28;20045;-49
2022/09/12 09:25:14;;;;;;;54.88;34.40;;;18.70;99.90;;;;;;5049945;28;20064;-48
2022/09/12 09:27:52;;;;;;;55.08;35.13;;;18.80;99.90;;;;;;5048961;28;20036;-50
2022/09/12 09:30:23;;;;;;;49.95;33.78;;;18.80;99.90;;;;;;5049446;28;20033;-45
2022/09/12 09:32:52;;;;;;;55.67;34.92;;;18.90;99.90;;;;;;5049333;28;20032;-48
2022/09/12 09:35:30;;;;;;;51.00;35.25;;;19.10;99.90;;;;;;5049034;28;20113;-48
2022/09/12 09:37:56;;;;;;;50.55;34.40;;;19.30;99.90;;;;;;5049295;28;20045;-46
2022/09/12 09:40:50;;;;;;;52.05;35.15;;;19.70;99.90;;;;;;5049329;28;20103;-48
2022/09/12 09:43:26;;;;;;;48.38;33.60;;;19.80;99.90;;;;;;5008475;28;20036;-50
2022/09/12 09:45:52;;;;;;;50.70;34.97;;;20.00;99.90;;;;;;5049455;28;20120;-48
2022/09/12 09:48:40;;;;;;;45.38;32.30;;;20.00;99.90;;;;;;5049293;28;20119;-48
2022/09/12 09:51:08;;;;;;;47.78;32.78;;;20.00;99.90;;;;;;5046977;28;20408;-48
2022/09/12 09:53:52;;;;;;;45.88;33.13;;;20.00;99.90;;;;;;5034910;28;20041;-48
2022/09/12 09:56:32;;;;;;;48.38;32.58;;;19.90;99.90;;;;;;5054583;28;20029;-51
2022/09/12 09:59:14;;;;;;;46.05;32.30;;;20.00;99.90;;;;;;5054287;28;20074;-46
2022/09/12 10:01:55;;;;;;;43.90;31.08;;;20.20;99.90;;;;;;5034430;28;20048;-49
2022/09/12 10:04:24;;;;;;;41.90;29.75;;;20.40;99.90;;;;;;5052821;28;20040;-47
2022/09/12 10:06:56;;;;;;;42.88;30.38;;;20.50;99.90;;;;;;5054068;28;20029;-48
2022/09/12 10:09:33;;;;;;;41.90;29.13;;;20.70;99.90;;;;;;5053684;28;20040;-49
2022/09/12 10:12:18;;;;;;;42.67;29.65;;;20.90;99.90;;;;;;5053780;28;20062;-50
2022/09/12 10:14:59;;;;;;;43.20;30.35;;;20.80;99.90;;;;;;5053482;28;20057;-46
2022/09/12 10:17:41;;;;;;;42.20;30.50;;;20.90;99.90;;;;;;5053671;28;20033;-45
2022/09/12 10:20:31;;;;;;;40.85;29.17;;;21.00;99.90;;;;;;5054675;28;20111;-49
2022/09/12 10:23:05;;;;;;;37.67;26.40;;;21.20;99.90;;;;;;5054747;28;20464;-48
2022/09/12 10:25:31;;;;;;;41.17;28.35;;;21.20;99.90;;;;;;5054798;28;20106;-47
2022/09/12 10:27:59;;;;;;;38.83;25.50;;;21.20;99.90;;;;;;5054473;28;20057;-47
2022/09/12 10:30:29;;;;;;;38.08;25.98;;;21.40;99.90;;;;;;5054715;28;20033;-47
2022/09/12 10:33:05;;;;;;;41.47;27.63;;;21.50;99.90;;;;;;5054459;28;20056;-49
2022/09/12 10:35:44;;;;;;;33.55;24.35;;;21.60;99.90;;;;;;5054261;28;20029;-45
2022/09/12 10:38:25;;;;;;;34.92;24.27;;;21.60;99.90;;;;;;5054553;28;20094;-45
2022/09/12 10:41:04;;;;;;;29.70;21.63;;;21.70;99.90;;;;;;5053328;28;20524;-49
2022/09/12 10:43:41;;;;;;;30.50;20.98;;;21.90;99.90;;;;;;5051534;28;20069;-47
2022/09/12 10:46:18;;;;;;;33.55;22.75;;;22.00;99.90;;;;;;5046009;28;20847;-48
2022/09/12 10:48:48;;;;;;;28.75;20.38;;;22.00;99.90;;;;;;5045320;28;20041;-46
2022/09/12 10:51:23;;;;;;;32.22;19.95;;;22.20;99.90;;;;;;5049635;28;20033;-45
2022/09/12 10:53:55;;;;;;;28.15;20.83;;;22.40;99.90;;;;;;5036403;28;20037;-46
2022/09/12 10:56:27;;;;;;;24.42;17.73;;;22.50;99.90;;;;;;5063566;28;20044;-51
2022/09/12 10:59:20;;;;;;;23.45;16.92;;;22.70;99.90;;;;;;5048924;28;20036;-49
2022/09/12 11:01:49;;;;;;;22.90;16.85;;;22.60;99.90;;;;;;5049349;28;20052;-47
2022/09/12 11:04:33;;;;;;;24.10;16.73;;;22.90;99.90;;;;;;5047484;28;20045;-48
2022/09/12 11:07:31;;;;;;;22.25;17.10;;;23.20;99.90;;;;;;5048542;28;20052;-46
2022/09/12 11:10:16;;;;;;;26.63;17.10;;;23.30;99.90;;;;;;5044883;28;20044;-45
2022/09/12 11:12:52;;;;;;;23.40;16.25;;;23.10;99.90;;;;;;5048323;28;20072;-46
2022/09/12 11:16:04;;;;;;;22.42;15.77;;;23.00;99.90;;;;;;5048434;28;20060;-48
2022/09/12 11:18:53;;;;;;;25.20;16.65;;;23.10;99.90;;;;;;4968763;28;20473;-48
2022/09/12 11:21:45;;;;;;;22.48;16.88;;;23.10;99.90;;;;;;5046279;28;20067;-46
2022/09/12 11:24:48;;;;;;;23.95;16.67;;;22.90;99.90;;;;;;5049197;28;20037;-50
2022/09/12 11:27:32;;;;;;;24.95;17.65;;;22.80;99.90;;;;;;5049188;28;20455;-49
2022/09/12 11:30:07;;;;;;;23.42;15.63;;;23.20;99.90;;;;;;5048366;28;20071;-47
2022/09/12 11:32:58;;;;;;;21.73;15.98;;;23.40;99.90;;;;;;5048628;28;20860;-46
2022/09/12 11:35:27;;;;;;;25.15;16.00;;;23.50;99.90;;;;;;5048564;28;20037;-44
2022/09/12 11:38:26;;;;;;;22.02;14.73;;;23.60;99.90;;;;;;5048267;28;20048;-47
2022/09/12 11:40:55;;;;;;;22.75;16.38;;;23.90;99.90;;;;;;5047549;28;20112;-46
2022/09/12 11:43:48;;;;;;;19.77;15.20;;;23.90;99.90;;;;;;5029538;28;20041;-51
2022/09/12 11:46:28;;;;;;;22.08;15.95;;;24.00;99.90;;;;;;5048237;28;20048;-46
2022/09/12 11:49:14;;;;;;;20.48;15.45;;;24.20;99.90;;;;;;5048579;28;20072;-48
2022/09/12 11:51:51;;;;;;;19.23;14.50;;;24.40;99.90;;;;;;5048064;28;20407;-49
2022/09/12 11:54:36;;;;;;;21.15;13.90;;;24.60;99.90;;;;;;5048214;28;20044;-47
2022/09/12 11:57:12;;;;;;;18.63;14.05;;;24.40;99.90;;;;;;5047975;28;20068;-46
2022/09/12 11:59:53;;;;;;;20.13;14.85;;;24.50;99.90;;;;;;5049531;28;20488;-45
2022/09/12 12:02:35;;;;;;;19.38;13.38;;;24.70;99.90;;;;;;5048336;28;20040;-48
2022/09/12 12:05:21;;;;;;;17.42;13.07;;;24.60;99.90;;;;;;5050979;28;20041;-45
2022/09/12 12:07:55;;;;;;;17.83;13.45;;;24.70;99.90;;;;;;5048408;28;20056;-45
2022/09/12 12:10:33;;;;;;;16.85;12.55;;;24.80;99.90;;;;;;5051787;28;20086;-48
2022/09/12 12:13:01;;;;;;;17.85;12.65;;;25.10;99.90;;;;;;5052107;28;20037;-46
2022/09/12 12:15:28;;;;;;;18.58;12.75;;;25.10;99.90;;;;;;5050628;28;20052;-46
2022/09/12 12:18:25;;;;;;;17.98;13.10;;;25.30;99.90;;;;;;5051880;28;20048;-49
2022/09/12 12:20:53;;;;;;;14.18;11.15;;;25.50;99.90;;;;;;5037114;28;20048;-46
2022/09/12 12:23:23;;;;;;;16.77;12.45;;;25.70;99.90;;;;;;5051444;28;21235;-45
2022/09/12 12:25:57;;;;;;;18.23;12.00;;;25.40;99.90;;;;;;5051694;28;20083;-45
2022/09/12 12:28:41;;;;;;;17.05;12.52;;;25.60;99.90;;;;;;5052043;28;20043;-46
2022/09/12 12:31:09;;;;;;;16.52;12.35;;;25.50;99.90;;;;;;5051569;28;20045;-47
2022/09/12 12:33:37;;;;;;;16.10;11.30;;;25.80;99.90;;;;;;5051742;28;20052;-49
2022/09/12 12:36:09;;;;;;;11.82;9.45;;;26.10;99.90;;;;;;5051703;28;20480;-46
2022/09/12 12:38:36;;;;;;;16.90;12.10;;;26.30;99.90;;;;;;5050045;28;20098;-45
2022/09/12 12:41:17;;;;;;;14.85;11.05;;;26.10;99.00;;;;;;5050346;28;20535;-46
2022/09/12 12:43:55;;;;;;;15.93;12.02;;;26.30;99.20;;;;;;5050470;28;20091;-49
2022/09/12 12:46:41;;;;;;;14.95;10.98;;;26.40;99.60;;;;;;5043180;28;20164;-47
2022/09/12 12:49:21;;;;;;;14.45;9.52;;;26.40;98.80;;;;;;5044385;28;20106;-47
2022/09/12 12:51:53;;;;;;;14.35;9.93;;;26.60;99.90;;;;;;5047351;28;20037;-48
2022/09/12 12:54:44;;;;;;;13.80;10.13;;;26.50;97.80;;;;;;5048500;28;20135;-45
2022/09/12 12:57:15;;;;;;;16.42;11.77;;;26.50;97.60;;;;;;5046316;28;20128;-49
2022/09/12 13:00:05;;;;;;;15.60;11.35;;;26.30;98.80;;;;;;5048766;28;20124;-46